createdAt,value
2017-08-04T04:31:21.685Z,9.83
2017-08-04T04:33:50.706Z,8.30
2017-08-04T04:36:19.007Z,8.60
2017-08-04T04:38:47.398Z,9.07
2017-08-04T04:41:15.663Z,8.47
2017-08-04T04:43:44.051Z,14.40
2017-08-04T04:46:12.346Z,12.60
2017-08-04T04:48:41.422Z,9.53
2017-08-04T04:51:09.798Z,6.67
2017-08-04T04:53:38.179Z,12.93
2017-08-04T04:56:06.452Z,9.10
2017-08-04T04:58:34.986Z,11.83
2017-08-04T05:01:03.251Z,12.13
2017-08-04T05:03:31.583Z,13.40
2017-08-04T05:05:59.883Z,7.50
2017-08-04T05:08:28.959Z,14.30
2017-08-04T05:10:57.255Z,8.13
2017-08-04T05:13:25.606Z,5.27
2017-08-04T05:15:53.906Z,8.73
2017-08-04T05:18:22.262Z,11.53
2017-08-04T05:20:50.574Z,4.67
2017-08-04T05:23:24.983Z,6.70
2017-08-04T05:25:54.043Z,6.13
2017-08-04T05:28:22.302Z,6.97
2017-08-04T05:30:50.606Z,3.80
2017-08-04T05:33:18.867Z,5.20
2017-08-04T05:35:47.163Z,5.73
2017-08-04T05:38:15.965Z,8.30
2017-08-04T05:40:44.326Z,13.20
2017-08-04T05:43:12.592Z,2.93
2017-08-04T05:45:40.898Z,10.63
2017-08-04T05:48:09.970Z,5.20
2017-08-04T05:50:40.311Z,6.53
2017-08-04T05:53:10.540Z,4.03
2017-08-04T05:55:38.799Z,16.73
2017-08-04T05:58:07.095Z,7.93
2017-08-04T06:00:36.170Z,10.80
2017-08-04T06:03:04.435Z,4.47
2017-08-04T06:05:32.818Z,10.13
2017-08-04T06:08:01.083Z,11.03
2017-08-04T06:10:29.378Z,10.73
2017-08-04T06:12:57.746Z,11.13
2017-08-04T06:15:26.143Z,9.17
2017-08-04T06:17:54.386Z,9.03
2017-08-04T06:20:22.676Z,11.70
2017-08-04T06:22:51.055Z,5.37
2017-08-04T06:25:19.426Z,5.60
2017-08-04T06:27:47.685Z,8.43
2017-08-04T14:09:28.579Z,10.33
2017-08-04T14:11:56.826Z,6.90
2017-08-04T14:14:25.111Z,4.40
2017-08-04T14:16:53.367Z,3.33
2017-08-04T14:19:21.651Z,6.03
2017-08-04T14:21:49.977Z,5.43
2017-08-04T14:24:18.242Z,3.60
2017-08-04T14:26:46.518Z,3.33
2017-08-04T14:29:14.908Z,4.50
2017-08-04T14:31:43.156Z,3.90
2017-08-04T14:34:11.542Z,7.37
2017-08-04T14:36:40.865Z,2.90
2017-08-04T14:39:09.174Z,2.40
2017-08-04T14:41:39.203Z,3.30
2017-08-04T14:44:08.208Z,3.53
2017-08-04T14:46:36.524Z,1.60
2017-08-04T14:49:04.902Z,1.80
2017-08-04T14:51:33.134Z,3.73
2017-08-04T14:54:01.454Z,1.50
2017-08-04T14:56:29.701Z,3.57
2017-08-04T14:58:57.986Z,2.90
2017-08-04T15:01:26.231Z,2.60
2017-08-04T15:03:54.531Z,3.17
2017-08-04T15:06:23.855Z,1.90
2017-08-04T15:08:52.094Z,4.67
2017-08-04T15:11:20.383Z,2.43
2017-08-04T15:13:48.631Z,2.70
2017-08-04T15:16:16.910Z,4.67
2017-08-04T15:18:45.165Z,6.63
2017-08-04T15:21:13.435Z,4.37
2017-08-04T15:23:42.486Z,3.13
2017-08-04T15:26:10.796Z,4.57
2017-08-04T15:28:39.810Z,8.63
2017-08-04T15:31:08.141Z,2.50
2017-08-04T15:33:36.420Z,6.77
2017-08-04T15:36:04.783Z,3.53
2017-08-04T15:38:33.177Z,1.87
2017-08-04T15:41:01.554Z,2.93
2017-08-04T15:43:29.791Z,1.93
2017-08-04T15:45:58.044Z,1.73
2017-08-04T15:48:26.323Z,1.53
2017-08-04T15:50:54.642Z,1.73
2017-08-04T15:53:22.939Z,4.30
2017-08-04T15:55:51.191Z,2.70
2017-08-04T15:58:19.435Z,3.93
2017-08-04T16:00:47.843Z,1.50
2017-08-04T16:03:16.094Z,2.90
2017-08-04T16:05:44.431Z,2.00
2017-08-04T16:08:13.482Z,5.10
2017-08-04T16:10:41.763Z,1.97
2017-08-04T16:13:10.039Z,3.00
2017-08-04T16:15:38.303Z,4.70
2017-08-04T16:18:06.606Z,2.93
2017-08-04T16:20:34.867Z,3.40
2017-08-04T16:23:03.242Z,4.60
2017-08-04T16:25:31.519Z,2.40
2017-08-04T16:27:59.766Z,2.63
2017-08-04T16:30:28.071Z,3.20
2017-08-04T16:32:56.406Z,4.77
2017-08-04T16:35:24.655Z,2.73
2017-08-04T16:37:53.710Z,3.77
2017-08-04T16:40:21.987Z,1.70
2017-08-04T16:42:50.271Z,2.33
2017-08-04T16:45:18.556Z,5.43
2017-08-04T16:47:46.819Z,2.63
2017-08-04T16:50:15.107Z,2.13
2017-08-04T16:52:44.268Z,2.00
2017-08-04T16:55:12.580Z,3.47
2017-08-04T16:57:40.835Z,3.73
2017-08-04T17:00:09.236Z,3.70
2017-08-04T17:02:38.415Z,1.30
2017-08-04T17:05:06.694Z,2.60
2017-08-04T17:07:34.963Z,2.47
2017-08-04T17:10:03.221Z,2.73
2017-08-04T17:12:31.516Z,2.33
2017-08-04T17:15:00.331Z,3.00
2017-08-04T17:17:29.039Z,2.70
2017-08-04T17:19:58.083Z,1.40
2017-08-04T17:22:26.339Z,2.13
2017-08-04T17:24:54.617Z,2.20
2017-08-04T17:27:22.914Z,3.10
2017-08-04T17:29:51.208Z,5.90
2017-08-04T17:32:19.663Z,5.43
2017-08-04T17:34:47.958Z,6.30
2017-08-04T17:37:16.244Z,4.13
2017-08-04T17:39:44.606Z,2.67
2017-08-04T17:42:12.870Z,6.17
2017-08-04T17:44:41.170Z,3.80
2017-08-04T17:47:09.430Z,3.40
2017-08-04T17:49:37.722Z,2.97
2017-08-04T17:52:05.962Z,4.93
2017-08-04T17:54:35.098Z,3.93
2017-08-04T17:57:03.350Z,1.60
2017-08-04T17:59:31.663Z,3.60
2017-08-04T18:02:00.683Z,3.63
2017-08-04T18:04:28.935Z,3.63
2017-08-04T18:06:57.987Z,4.00
2017-08-04T18:09:26.238Z,5.00
2017-08-04T18:11:54.615Z,9.40
2017-08-04T18:14:22.890Z,3.10
2017-08-04T18:16:51.204Z,5.73
2017-08-04T18:19:19.475Z,5.07
2017-08-04T18:21:47.746Z,3.93
2017-08-04T18:24:16.019Z,7.40
2017-08-04T18:26:44.295Z,5.83
2017-08-04T18:29:12.807Z,9.13
2017-08-04T18:31:41.178Z,12.60
2017-08-04T18:34:09.453Z,8.73
2017-08-04T18:36:38.530Z,4.03
2017-08-04T18:39:06.806Z,6.97
2017-08-04T18:41:35.101Z,6.80
2017-08-04T18:44:03.376Z,8.60
2017-08-04T18:46:31.654Z,13.30
2017-08-04T18:48:59.891Z,5.33
2017-08-04T18:51:28.204Z,10.87
2017-08-04T18:53:56.442Z,8.00
2017-08-04T18:56:24.729Z,6.80
2017-08-04T18:58:53.014Z,7.17
2017-08-04T19:01:21.282Z,4.87
2017-08-04T19:03:50.482Z,7.83
2017-08-04T19:06:18.838Z,7.37
2017-08-04T19:08:47.090Z,7.70
2017-08-04T19:11:16.256Z,5.57
2017-08-04T19:13:45.523Z,9.13
2017-08-04T19:16:13.820Z,7.33
2017-08-04T19:18:42.067Z,9.13
2017-08-04T19:21:10.367Z,15.43
2017-08-04T19:23:38.643Z,8.37
2017-08-04T19:26:07.955Z,6.23
2017-08-04T19:28:36.195Z,8.40
2017-08-04T19:31:10.163Z,11.27
2017-08-04T19:33:39.179Z,11.87
2017-08-04T19:36:07.466Z,10.50
2017-08-04T19:38:35.723Z,9.13
2017-08-04T19:41:04.064Z,13.10
2017-08-04T19:43:32.323Z,8.90
2017-08-04T19:46:00.703Z,6.63
2017-08-04T19:48:28.983Z,8.60
2017-08-04T19:50:57.425Z,6.27
2017-08-04T19:53:26.498Z,4.77
2017-08-04T19:55:54.834Z,6.10
2017-08-04T19:58:23.210Z,9.87
2017-08-04T20:00:51.501Z,10.87
2017-08-04T20:03:19.831Z,8.37
2017-08-04T20:05:48.086Z,15.60
2017-08-04T20:08:16.375Z,12.23
2017-08-04T20:10:44.691Z,12.20
2017-08-04T20:13:13.010Z,5.63
2017-08-04T20:15:41.364Z,9.83
2017-08-04T20:18:09.628Z,13.60
2017-08-04T20:20:37.908Z,11.17
2017-08-04T20:23:07.164Z,9.50
2017-08-04T20:25:35.407Z,15.97
2017-08-04T20:28:04.460Z,9.17
2017-08-04T20:30:32.847Z,12.23
2017-08-04T20:33:01.123Z,7.43
2017-08-04T20:35:29.502Z,13.93
2017-08-04T20:37:58.018Z,9.77
2017-08-04T20:40:26.373Z,11.50
2017-08-04T20:42:54.737Z,11.93
2017-08-04T20:45:22.992Z,10.03
2017-08-04T20:47:51.275Z,11.70
2017-08-04T20:50:20.486Z,7.43
2017-08-04T20:52:48.766Z,11.57
2017-08-04T20:55:17.143Z,9.03
2017-08-04T20:57:45.519Z,9.07
2017-08-04T21:00:13.794Z,11.50
2017-08-04T21:02:42.216Z,13.57
2017-08-04T21:05:10.559Z,9.53
2017-08-04T21:07:38.950Z,22.27
2017-08-04T21:10:07.207Z,7.57
2017-08-04T21:12:35.814Z,15.40
2017-08-04T21:15:04.113Z,9.53
2017-08-04T21:17:33.147Z,11.23
2017-08-04T21:20:01.539Z,8.13
2017-08-04T21:22:29.814Z,21.27
2017-08-04T21:24:58.102Z,18.07
2017-08-04T21:27:26.370Z,6.83
2017-08-04T21:29:54.651Z,6.70
2017-08-04T21:32:22.919Z,7.43
2017-08-04T21:34:51.206Z,10.97
2017-08-04T21:37:19.491Z,6.67
2017-08-04T21:39:47.851Z,10.87
2017-08-04T21:42:16.102Z,6.63
2017-08-04T21:44:44.379Z,10.07
2017-08-04T21:47:12.667Z,7.87
2017-08-04T21:49:41.059Z,12.13
2017-08-04T21:52:09.330Z,11.87
2017-08-04T21:54:37.710Z,11.63
2017-08-04T21:57:06.986Z,14.40
2017-08-04T21:59:35.286Z,12.07
2017-08-04T22:02:04.635Z,7.60
2017-08-04T22:04:33.702Z,14.00
2017-08-04T22:07:01.956Z,9.40
2017-08-04T22:09:30.358Z,13.10
2017-08-04T22:11:58.611Z,17.37
2017-08-04T22:14:26.871Z,16.97
2017-08-04T22:16:55.162Z,9.23
2017-08-04T22:19:23.436Z,7.87
2017-08-04T22:21:51.819Z,9.90
2017-08-04T22:24:20.200Z,14.13
2017-08-04T22:26:48.475Z,12.17
2017-08-04T22:29:16.871Z,19.00
2017-08-04T22:31:45.127Z,15.50
2017-08-04T22:34:13.416Z,8.90
2017-08-04T22:36:41.670Z,17.20
2017-08-04T22:39:10.059Z,10.30
2017-08-04T22:41:38.315Z,17.10
2017-08-04T22:44:06.599Z,14.43
2017-08-04T22:46:34.871Z,17.10
2017-08-04T22:49:03.267Z,13.60
2017-08-04T22:51:31.527Z,12.90
2017-08-04T22:53:59.840Z,10.23
2017-08-04T22:56:28.196Z,15.50
2017-08-04T22:58:56.450Z,13.07
2017-08-04T23:01:24.750Z,17.13
2017-08-04T23:03:52.999Z,13.27
2017-08-04T23:06:21.299Z,10.17
2017-08-04T23:08:49.575Z,8.20
2017-08-04T23:11:17.869Z,11.63
2017-08-04T23:13:46.133Z,7.80
2017-08-04T23:52:14.582Z,12.67
2017-08-04T23:54:42.843Z,17.87
2017-08-04T23:57:11.131Z,21.60
2017-08-04T23:59:39.410Z,13.37
